sensor_id;sensor_type;location;lat;lon;timestamp;P1;durP1;ratioP1;P2;durP2;ratioP2
72127;SDS011;60000;51.030;7.024;2023-04-06T00:00:01;6.50;;;2.10;;
72127;SDS011;60000;51.030;7.024;2023-04-06T00:02:28;6.90;;;2.50;;
72127;SDS011;60000;51.030;7.024;2023-04-06T00:04:54;6.80;;;2.43;;
72127;SDS011;60000;51.030;7.024;2023-04-06T00:07:19;5.53;;;1.80;;
72127;SDS011;60000;51.030;7.024;2023-04-06T00:09:45;6.18;;;2.55;;
72127;SDS011;60000;51.030;7.024;2023-04-06T00:12:10;9.87;;;2.20;;
72127;SDS011;60000;51.030;7.024;2023-04-06T00:14:36;6.00;;;1.90;;
72127;SDS011;60000;51.030;7.024;2023-04-06T00:17:01;6.23;;;2.13;;
72127;SDS011;60000;51.030;7.024;2023-04-06T00:19:26;6.17;;;2.03;;
72127;SDS011;60000;51.030;7.024;2023-04-06T00:21:52;8.27;;;2.37;;
72127;SDS011;60000;51.030;7.024;2023-04-06T00:24:17;7.03;;;2.33;;
72127;SDS011;60000;51.030;7.024;2023-04-06T00:26:42;6.63;;;2.03;;
72127;SDS011;60000;51.030;7.024;2023-04-06T00:29:08;6.57;;;2.50;;
72127;SDS011;60000;51.030;7.024;2023-04-06T00:31:33;7.33;;;2.40;;
72127;SDS011;60000;51.030;7.024;2023-04-06T00:33:59;5.60;;;2.20;;
72127;SDS011;60000;51.030;7.024;2023-04-06T00:36:24;7.03;;;2.23;;
72127;SDS011;60000;51.030;7.024;2023-04-06T00:38:50;5.75;;;1.83;;
72127;SDS011;60000;51.030;7.024;2023-04-06T00:41:17;6.43;;;2.23;;
72127;SDS011;60000;51.030;7.024;2023-04-06T00:43:42;5.97;;;2.10;;
72127;SDS011;60000;51.030;7.024;2023-04-06T00:46:08;6.77;;;2.30;;
72127;SDS011;60000;51.030;7.024;2023-04-06T00:48:33;6.10;;;2.30;;
72127;SDS011;60000;51.030;7.024;2023-04-06T00:50:58;6.40;;;2.20;;
72127;SDS011;60000;51.030;7.024;2023-04-06T00:53:25;7.25;;;2.50;;
72127;SDS011;60000;51.030;7.024;2023-04-06T00:55:51;7.27;;;2.60;;
72127;SDS011;60000;51.030;7.024;2023-04-06T00:58:16;7.43;;;2.47;;
72127;SDS011;60000;51.030;7.024;2023-04-06T01:00:41;8.00;;;3.03;;
72127;SDS011;60000;51.030;7.024;2023-04-06T01:03:07;7.33;;;3.03;;
72127;SDS011;60000;51.030;7.024;2023-04-06T01:05:34;7.87;;;3.10;;
72127;SDS011;60000;51.030;7.024;2023-04-06T01:08:04;7.50;;;2.60;;
72127;SDS011;60000;51.030;7.024;2023-04-06T01:10:30;6.43;;;2.20;;
72127;SDS011;60000;51.030;7.024;2023-04-06T01:12:56;6.35;;;2.38;;
72127;SDS011;60000;51.030;7.024;2023-04-06T01:15:21;7.43;;;2.37;;
72127;SDS011;60000;51.030;7.024;2023-04-06T01:17:47;8.02;;;2.22;;
72127;SDS011;60000;51.030;7.024;2023-04-06T01:20:12;5.70;;;2.20;;
72127;SDS011;60000;51.030;7.024;2023-04-06T01:22:38;6.23;;;2.20;;
72127;SDS011;60000;51.030;7.024;2023-04-06T01:25:04;7.60;;;2.08;;
72127;SDS011;60000;51.030;7.024;2023-04-06T01:27:29;7.45;;;2.70;;
72127;SDS011;60000;51.030;7.024;2023-04-06T01:29:55;8.50;;;2.55;;
72127;SDS011;60000;51.030;7.024;2023-04-06T01:32:21;6.50;;;2.27;;
72127;SDS011;60000;51.030;7.024;2023-04-06T01:34:46;5.70;;;2.07;;
72127;SDS011;60000;51.030;7.024;2023-04-06T01:37:12;6.03;;;2.00;;
72127;SDS011;60000;51.030;7.024;2023-04-06T01:39:37;6.43;;;1.73;;
72127;SDS011;60000;51.030;7.024;2023-04-06T01:42:03;6.00;;;2.00;;
72127;SDS011;60000;51.030;7.024;2023-04-06T01:44:28;5.43;;;1.63;;
72127;SDS011;60000;51.030;7.024;2023-04-06T01:46:55;5.25;;;2.10;;
72127;SDS011;60000;51.030;7.024;2023-04-06T01:49:21;6.82;;;2.85;;
72127;SDS011;60000;51.030;7.024;2023-04-06T01:51:47;9.40;;;3.30;;
72127;SDS011;60000;51.030;7.024;2023-04-06T01:54:12;9.27;;;2.80;;
72127;SDS011;60000;51.030;7.024;2023-04-06T01:56:37;7.70;;;2.35;;
72127;SDS011;60000;51.030;7.024;2023-04-06T01:59:03;6.95;;;2.47;;
72127;SDS011;60000;51.030;7.024;2023-04-06T02:01:28;8.83;;;2.80;;
72127;SDS011;60000;51.030;7.024;2023-04-06T02:03:53;7.93;;;2.33;;
72127;SDS011;60000;51.030;7.024;2023-04-06T02:06:19;5.73;;;2.13;;
72127;SDS011;60000;51.030;7.024;2023-04-06T02:08:44;6.73;;;2.00;;
72127;SDS011;60000;51.030;7.024;2023-04-06T02:11:10;7.47;;;2.67;;
72127;SDS011;60000;51.030;7.024;2023-04-06T02:13:35;5.90;;;2.03;;
72127;SDS011;60000;51.030;7.024;2023-04-06T02:16:00;6.57;;;2.08;;
72127;SDS011;60000;51.030;7.024;2023-04-06T02:18:27;6.73;;;2.13;;
72127;SDS011;60000;51.030;7.024;2023-04-06T02:20:53;5.80;;;2.00;;
72127;SDS011;60000;51.030;7.024;2023-04-06T02:23:18;6.57;;;2.50;;
72127;SDS011;60000;51.030;7.024;2023-04-06T02:25:44;6.70;;;1.98;;
72127;SDS011;60000;51.030;7.024;2023-04-06T02:28:09;6.47;;;2.20;;
72127;SDS011;60000;51.030;7.024;2023-04-06T02:30:35;8.97;;;2.93;;
72127;SDS011;60000;51.030;7.024;2023-04-06T02:33:00;7.70;;;2.63;;
72127;SDS011;60000;51.030;7.024;2023-04-06T02:35:27;6.43;;;2.45;;
72127;SDS011;60000;51.030;7.024;2023-04-06T02:37:53;5.75;;;2.10;;
72127;SDS011;60000;51.030;7.024;2023-04-06T02:40:19;7.30;;;2.37;;
72127;SDS011;60000;51.030;7.024;2023-04-06T02:42:44;6.83;;;2.60;;
72127;SDS011;60000;51.030;7.024;2023-04-06T02:45:10;8.90;;;3.15;;
72127;SDS011;60000;51.030;7.024;2023-04-06T02:47:35;7.13;;;2.70;;
72127;SDS011;60000;51.030;7.024;2023-04-06T02:50:00;6.70;;;2.60;;
72127;SDS011;60000;51.030;7.024;2023-04-06T02:52:26;5.90;;;2.30;;
72127;SDS011;60000;51.030;7.024;2023-04-06T02:54:52;7.05;;;2.60;;
72127;SDS011;60000;51.030;7.024;2023-04-06T02:57:17;6.83;;;2.40;;
72127;SDS011;60000;51.030;7.024;2023-04-06T02:59:42;6.50;;;2.27;;
72127;SDS011;60000;51.030;7.024;2023-04-06T03:02:08;7.20;;;2.60;;
72127;SDS011;60000;51.030;7.024;2023-04-06T03:04:33;7.33;;;2.50;;
72127;SDS011;60000;51.030;7.024;2023-04-06T03:06:59;9.10;;;3.30;;
72127;SDS011;60000;51.030;7.024;2023-04-06T03:09:24;7.15;;;2.67;;
72127;SDS011;60000;51.030;7.024;2023-04-06T03:11:49;7.22;;;2.78;;
72127;SDS011;60000;51.030;7.024;2023-04-06T03:14:15;6.07;;;2.20;;
72127;SDS011;60000;51.030;7.024;2023-04-06T03:16:42;6.53;;;2.10;;
72127;SDS011;60000;51.030;7.024;2023-04-06T03:19:07;6.05;;;2.40;;
72127;SDS011;60000;51.030;7.024;2023-04-06T03:21:33;6.97;;;2.40;;
72127;SDS011;60000;51.030;7.024;2023-04-06T03:23:58;7.37;;;2.67;;
72127;SDS011;60000;51.030;7.024;2023-04-06T03:26:23;7.90;;;2.60;;
72127;SDS011;60000;51.030;7.024;2023-04-06T03:28:49;8.97;;;3.27;;
72127;SDS011;60000;51.030;7.024;2023-04-06T03:31:14;8.30;;;3.10;;
72127;SDS011;60000;51.030;7.024;2023-04-06T03:33:40;7.17;;;2.40;;
72127;SDS011;60000;51.030;7.024;2023-04-06T03:36:05;6.43;;;2.30;;
72127;SDS011;60000;51.030;7.024;2023-04-06T03:38:31;7.75;;;2.60;;
72127;SDS011;60000;51.030;7.024;2023-04-06T03:40:57;6.10;;;2.10;;
72127;SDS011;60000;51.030;7.024;2023-04-06T03:43:22;6.30;;;2.10;;
72127;SDS011;60000;51.030;7.024;2023-04-06T03:45:47;6.40;;;2.30;;
72127;SDS011;60000;51.030;7.024;2023-04-06T03:48:13;7.67;;;2.70;;
72127;SDS011;60000;51.030;7.024;2023-04-06T03:50:38;7.13;;;2.07;;
72127;SDS011;60000;51.030;7.024;2023-04-06T03:53:04;7.32;;;2.67;;
72127;SDS011;60000;51.030;7.024;2023-04-06T03:55:29;5.80;;;2.38;;
72127;SDS011;60000;51.030;7.024;2023-04-06T03:57:55;6.90;;;2.43;;
72127;SDS011;60000;51.030;7.024;2023-04-06T04:00:20;7.47;;;2.37;;
72127;SDS011;60000;51.030;7.024;2023-04-06T04:02:46;8.57;;;2.72;;
72127;SDS011;60000;51.030;7.024;2023-04-06T04:05:11;8.70;;;3.15;;
72127;SDS011;60000;51.030;7.024;2023-04-06T04:07:36;7.70;;;2.80;;
72127;SDS011;60000;51.030;7.024;2023-04-06T04:10:02;6.77;;;2.57;;
72127;SDS011;60000;51.030;7.024;2023-04-06T04:12:28;7.90;;;2.78;;
72127;SDS011;60000;51.030;7.024;2023-04-06T04:14:53;6.97;;;2.13;;
72127;SDS011;60000;51.030;7.024;2023-04-06T04:17:19;7.27;;;2.43;;
72127;SDS011;60000;51.030;7.024;2023-04-06T04:19:46;6.90;;;2.30;;
72127;SDS011;60000;51.030;7.024;2023-04-06T04:22:12;6.40;;;2.40;;
72127;SDS011;60000;51.030;7.024;2023-04-06T04:24:37;7.72;;;2.78;;
72127;SDS011;60000;51.030;7.024;2023-04-06T04:27:03;6.90;;;2.67;;
72127;SDS011;60000;51.030;7.024;2023-04-06T04:29:29;6.50;;;2.25;;
72127;SDS011;60000;51.030;7.024;2023-04-06T04:31:55;7.70;;;2.40;;
72127;SDS011;60000;51.030;7.024;2023-04-06T04:34:20;7.40;;;2.77;;
72127;SDS011;60000;51.030;7.024;2023-04-06T04:36:48;5.97;;;2.35;;
72127;SDS011;60000;51.030;7.024;2023-04-06T04:39:14;6.90;;;2.50;;
72127;SDS011;60000;51.030;7.024;2023-04-06T04:41:39;7.37;;;2.50;;
72127;SDS011;60000;51.030;7.024;2023-04-06T04:44:05;7.17;;;2.47;;
72127;SDS011;60000;51.030;7.024;2023-04-06T04:46:30;6.30;;;2.17;;
72127;SDS011;60000;51.030;7.024;2023-04-06T04:48:55;8.67;;;2.90;;
72127;SDS011;60000;51.030;7.024;2023-04-06T04:51:21;7.13;;;2.80;;
72127;SDS011;60000;51.030;7.024;2023-04-06T04:53:46;7.13;;;2.80;;
72127;SDS011;60000;51.030;7.024;2023-04-06T04:56:12;8.18;;;2.67;;
72127;SDS011;60000;51.030;7.024;2023-04-06T04:58:37;6.70;;;2.40;;
72127;SDS011;60000;51.030;7.024;2023-04-06T05:01:03;7.90;;;2.40;;
72127;SDS011;60000;51.030;7.024;2023-04-06T05:03:28;6.50;;;2.37;;
72127;SDS011;60000;51.030;7.024;2023-04-06T05:05:54;7.38;;;2.53;;
72127;SDS011;60000;51.030;7.024;2023-04-06T05:08:20;6.83;;;1.90;;
72127;SDS011;60000;51.030;7.024;2023-04-06T05:10:45;6.93;;;2.53;;
72127;SDS011;60000;51.030;7.024;2023-04-06T05:13:11;7.63;;;2.50;;
72127;SDS011;60000;51.030;7.024;2023-04-06T05:15:37;8.50;;;2.40;;
72127;SDS011;60000;51.030;7.024;2023-04-06T05:18:06;6.07;;;2.27;;
72127;SDS011;60000;51.030;7.024;2023-04-06T05:20:32;6.78;;;2.45;;
72127;SDS011;60000;51.030;7.024;2023-04-06T05:22:59;7.15;;;2.53;;
72127;SDS011;60000;51.030;7.024;2023-04-06T05:25:25;7.20;;;2.70;;
72127;SDS011;60000;51.030;7.024;2023-04-06T05:27:50;8.50;;;3.20;;
72127;SDS011;60000;51.030;7.024;2023-04-06T05:30:16;6.80;;;2.47;;
72127;SDS011;60000;51.030;7.024;2023-04-06T05:32:41;6.60;;;2.30;;
72127;SDS011;60000;51.030;7.024;2023-04-06T05:35:08;7.07;;;2.33;;
72127;SDS011;60000;51.030;7.024;2023-04-06T05:37:34;7.13;;;2.88;;
72127;SDS011;60000;51.030;7.024;2023-04-06T05:39:59;7.00;;;2.37;;
72127;SDS011;60000;51.030;7.024;2023-04-06T05:42:25;6.40;;;2.10;;
72127;SDS011;60000;51.030;7.024;2023-04-06T05:44:52;6.70;;;2.20;;
72127;SDS011;60000;51.030;7.024;2023-04-06T05:47:17;5.80;;;2.15;;
72127;SDS011;60000;51.030;7.024;2023-04-06T05:49:43;6.13;;;2.00;;
72127;SDS011;60000;51.030;7.024;2023-04-06T05:52:08;6.00;;;2.40;;
72127;SDS011;60000;51.030;7.024;2023-04-06T05:54:35;7.97;;;2.80;;
72127;SDS011;60000;51.030;7.024;2023-04-06T05:57:02;7.10;;;2.20;;
72127;SDS011;60000;51.030;7.024;2023-04-06T05:59:29;7.55;;;2.67;;
72127;SDS011;60000;51.030;7.024;2023-04-06T06:01:55;6.90;;;2.40;;
72127;SDS011;60000;51.030;7.024;2023-04-06T06:04:21;7.68;;;2.05;;
72127;SDS011;60000;51.030;7.024;2023-04-06T06:06:46;6.30;;;2.33;;
72127;SDS011;60000;51.030;7.024;2023-04-06T06:09:11;7.17;;;2.63;;
72127;SDS011;60000;51.030;7.024;2023-04-06T06:11:37;8.17;;;2.90;;
72127;SDS011;60000;51.030;7.024;2023-04-06T06:14:02;6.80;;;2.50;;
72127;SDS011;60000;51.030;7.024;2023-04-06T06:16:28;6.97;;;2.63;;
72127;SDS011;60000;51.030;7.024;2023-04-06T06:18:53;8.53;;;3.40;;
72127;SDS011;60000;51.030;7.024;2023-04-06T06:21:19;9.07;;;4.03;;
72127;SDS011;60000;51.030;7.024;2023-04-06T06:23:44;9.77;;;4.18;;
72127;SDS011;60000;51.030;7.024;2023-04-06T06:26:12;8.50;;;3.40;;
72127;SDS011;60000;51.030;7.024;2023-04-06T06:28:37;8.90;;;3.20;;
72127;SDS011;60000;51.030;7.024;2023-04-06T06:31:03;7.77;;;3.40;;
72127;SDS011;60000;51.030;7.024;2023-04-06T06:33:28;8.90;;;3.00;;
72127;SDS011;60000;51.030;7.024;2023-04-06T06:35:53;7.80;;;3.20;;
72127;SDS011;60000;51.030;7.024;2023-04-06T06:38:19;9.37;;;3.07;;
72127;SDS011;60000;51.030;7.024;2023-04-06T06:40:45;10.27;;;3.10;;
72127;SDS011;60000;51.030;7.024;2023-04-06T06:43:11;9.45;;;3.53;;
72127;SDS011;60000;51.030;7.024;2023-04-06T06:45:36;8.03;;;3.60;;
72127;SDS011;60000;51.030;7.024;2023-04-06T06:48:01;8.77;;;3.50;;
72127;SDS011;60000;51.030;7.024;2023-04-06T06:50:27;11.97;;;4.07;;
72127;SDS011;60000;51.030;7.024;2023-04-06T06:52:52;11.63;;;4.57;;
72127;SDS011;60000;51.030;7.024;2023-04-06T06:55:18;10.37;;;4.37;;
72127;SDS011;60000;51.030;7.024;2023-04-06T06:57:44;9.68;;;4.07;;
72127;SDS011;60000;51.030;7.024;2023-04-06T07:00:11;10.10;;;4.25;;
72127;SDS011;60000;51.030;7.024;2023-04-06T07:02:38;11.07;;;4.65;;
72127;SDS011;60000;51.030;7.024;2023-04-06T07:05:03;9.20;;;4.17;;
72127;SDS011;60000;51.030;7.024;2023-04-06T07:07:31;9.68;;;4.30;;
72127;SDS011;60000;51.030;7.024;2023-04-06T07:09:57;11.27;;;4.10;;
72127;SDS011;60000;51.030;7.024;2023-04-06T07:12:25;10.02;;;3.75;;
72127;SDS011;60000;51.030;7.024;2023-04-06T07:14:50;10.73;;;3.70;;
72127;SDS011;60000;51.030;7.024;2023-04-06T07:17:16;10.10;;;4.30;;
72127;SDS011;60000;51.030;7.024;2023-04-06T07:19:41;11.73;;;4.45;;
72127;SDS011;60000;51.030;7.024;2023-04-06T07:22:06;10.60;;;4.33;;
72127;SDS011;60000;51.030;7.024;2023-04-06T07:24:32;10.53;;;4.20;;
72127;SDS011;60000;51.030;7.024;2023-04-06T07:26:58;10.30;;;4.80;;
72127;SDS011;60000;51.030;7.024;2023-04-06T07:29:25;9.45;;;4.35;;
72127;SDS011;60000;51.030;7.024;2023-04-06T07:31:51;11.98;;;4.68;;
72127;SDS011;60000;51.030;7.024;2023-04-06T07:34:16;10.90;;;4.33;;
72127;SDS011;60000;51.030;7.024;2023-04-06T07:36:42;11.33;;;4.70;;
72127;SDS011;60000;51.030;7.024;2023-04-06T07:39:07;10.83;;;4.80;;
72127;SDS011;60000;51.030;7.024;2023-04-06T07:41:32;10.33;;;4.53;;
72127;SDS011;60000;51.030;7.024;2023-04-06T07:43:58;10.57;;;4.60;;
72127;SDS011;60000;51.030;7.024;2023-04-06T07:46:23;11.00;;;4.73;;
72127;SDS011;60000;51.030;7.024;2023-04-06T07:48:49;10.55;;;4.68;;
72127;SDS011;60000;51.030;7.024;2023-04-06T07:51:15;10.95;;;5.10;;
72127;SDS011;60000;51.030;7.024;2023-04-06T07:53:42;11.27;;;4.90;;
72127;SDS011;60000;51.030;7.024;2023-04-06T07:56:09;9.98;;;4.30;;
72127;SDS011;60000;51.030;7.024;2023-04-06T07:58:34;14.87;;;4.57;;
72127;SDS011;60000;51.030;7.024;2023-04-06T08:00:59;13.60;;;4.95;;
72127;SDS011;60000;51.030;7.024;2023-04-06T08:03:26;12.27;;;4.50;;
72127;SDS011;60000;51.030;7.024;2023-04-06T08:05:52;11.93;;;4.85;;
72127;SDS011;60000;51.030;7.024;2023-04-06T08:08:17;11.68;;;5.28;;
72127;SDS011;60000;51.030;7.024;2023-04-06T08:10:43;9.57;;;4.47;;
72127;SDS011;60000;51.030;7.024;2023-04-06T08:13:08;11.00;;;4.90;;
72127;SDS011;60000;51.030;7.024;2023-04-06T08:15:35;10.77;;;5.25;;
72127;SDS011;60000;51.030;7.024;2023-04-06T08:18:00;11.23;;;5.17;;
72127;SDS011;60000;51.030;7.024;2023-04-06T08:20:26;11.13;;;5.47;;
72127;SDS011;60000;51.030;7.024;2023-04-06T08:22:51;12.00;;;5.20;;
72127;SDS011;60000;51.030;7.024;2023-04-06T08:25:17;11.52;;;5.18;;
72127;SDS011;60000;51.030;7.024;2023-04-06T08:27:42;10.00;;;4.30;;
72127;SDS011;60000;51.030;7.024;2023-04-06T08:30:07;11.40;;;4.70;;
72127;SDS011;60000;51.030;7.024;2023-04-06T08:32:33;10.55;;;5.07;;
72127;SDS011;60000;51.030;7.024;2023-04-06T08:34:59;12.57;;;4.77;;
72127;SDS011;60000;51.030;7.024;2023-04-06T08:37:24;9.70;;;4.67;;
72127;SDS011;60000;51.030;7.024;2023-04-06T08:39:50;10.77;;;5.00;;
72127;SDS011;60000;51.030;7.024;2023-04-06T08:42:18;10.32;;;5.00;;
72127;SDS011;60000;51.030;7.024;2023-04-06T08:44:45;10.52;;;5.07;;
72127;SDS011;60000;51.030;7.024;2023-04-06T08:47:12;13.77;;;5.40;;
72127;SDS011;60000;51.030;7.024;2023-04-06T08:49:37;12.00;;;5.37;;
72127;SDS011;60000;51.030;7.024;2023-04-06T08:52:06;10.40;;;5.53;;
72127;SDS011;60000;51.030;7.024;2023-04-06T08:54:33;14.43;;;5.28;;
72127;SDS011;60000;51.030;7.024;2023-04-06T08:56:59;11.18;;;5.13;;
72127;SDS011;60000;51.030;7.024;2023-04-06T08:59:26;13.98;;;6.68;;
72127;SDS011;60000;51.030;7.024;2023-04-06T09:01:52;12.55;;;6.57;;
72127;SDS011;60000;51.030;7.024;2023-04-06T09:04:19;13.40;;;5.80;;
72127;SDS011;60000;51.030;7.024;2023-04-06T09:06:45;11.70;;;5.70;;
72127;SDS011;60000;51.030;7.024;2023-04-06T09:09:10;10.27;;;5.30;;
72127;SDS011;60000;51.030;7.024;2023-04-06T09:11:46;11.02;;;5.47;;
72127;SDS011;60000;51.030;7.024;2023-04-06T09:14:15;10.10;;;5.05;;
72127;SDS011;60000;51.030;7.024;2023-04-06T09:16:42;11.63;;;5.97;;
72127;SDS011;60000;51.030;7.024;2023-04-06T09:19:10;15.20;;;6.40;;
72127;SDS011;60000;51.030;7.024;2023-04-06T09:21:36;13.73;;;6.32;;
72127;SDS011;60000;51.030;7.024;2023-04-06T09:24:03;12.10;;;5.70;;
72127;SDS011;60000;51.030;7.024;2023-04-06T09:26:29;11.43;;;6.00;;
72127;SDS011;60000;51.030;7.024;2023-04-06T09:28:55;15.33;;;5.57;;
72127;SDS011;60000;51.030;7.024;2023-04-06T09:31:23;12.63;;;5.85;;
72127;SDS011;60000;51.030;7.024;2023-04-06T09:33:57;12.38;;;5.60;;
72127;SDS011;60000;51.030;7.024;2023-04-06T09:36:34;11.60;;;5.30;;
72127;SDS011;60000;51.030;7.024;2023-04-06T09:39:05;12.63;;;6.15;;
72127;SDS011;60000;51.030;7.024;2023-04-06T09:41:31;11.45;;;5.75;;
72127;SDS011;60000;51.030;7.024;2023-04-06T09:44:02;14.15;;;6.35;;
72127;SDS011;60000;51.030;7.024;2023-04-06T09:46:37;14.47;;;6.57;;
72127;SDS011;60000;51.030;7.024;2023-04-06T09:49:04;13.20;;;6.20;;
72127;SDS011;60000;51.030;7.024;2023-04-06T09:51:35;13.30;;;6.50;;
72127;SDS011;60000;51.030;7.024;2023-04-06T09:54:02;13.18;;;6.28;;
72127;SDS011;60000;51.030;7.024;2023-04-06T09:56:45;14.13;;;5.53;;
72127;SDS011;60000;51.030;7.024;2023-04-06T09:59:24;15.27;;;7.23;;
72127;SDS011;60000;51.030;7.024;2023-04-06T10:01:52;12.85;;;5.68;;
72127;SDS011;60000;51.030;7.024;2023-04-06T10:06:55;16.27;;;7.20;;
72127;SDS011;60000;51.030;7.024;2023-04-06T10:09:22;15.93;;;7.03;;
72127;SDS011;60000;51.030;7.024;2023-04-06T10:11:53;14.47;;;6.73;;
72127;SDS011;60000;51.030;7.024;2023-04-06T10:14:19;14.20;;;6.57;;
72127;SDS011;60000;51.030;7.024;2023-04-06T10:16:44;12.93;;;6.90;;
72127;SDS011;60000;51.030;7.024;2023-04-06T10:19:13;15.30;;;8.00;;
72127;SDS011;60000;51.030;7.024;2023-04-06T10:21:43;17.95;;;7.10;;
72127;SDS011;60000;51.030;7.024;2023-04-06T10:24:11;13.95;;;6.60;;
72127;SDS011;60000;51.030;7.024;2023-04-06T10:26:38;15.30;;;6.82;;
72127;SDS011;60000;51.030;7.024;2023-04-06T10:29:04;15.40;;;6.87;;
72127;SDS011;60000;51.030;7.024;2023-04-06T10:31:30;15.05;;;7.03;;
72127;SDS011;60000;51.030;7.024;2023-04-06T10:33:56;18.20;;;7.47;;
72127;SDS011;60000;51.030;7.024;2023-04-06T10:36:23;14.50;;;7.07;;
72127;SDS011;60000;51.030;7.024;2023-04-06T10:38:55;14.20;;;6.93;;
72127;SDS011;60000;51.030;7.024;2023-04-06T10:41:31;18.77;;;7.00;;
72127;SDS011;60000;51.030;7.024;2023-04-06T10:44:05;15.57;;;6.93;;
72127;SDS011;60000;51.030;7.024;2023-04-06T10:46:32;16.58;;;7.18;;
72127;SDS011;60000;51.030;7.024;2023-04-06T10:48:58;15.30;;;7.07;;
72127;SDS011;60000;51.030;7.024;2023-04-06T10:51:37;16.10;;;6.95;;
72127;SDS011;60000;51.030;7.024;2023-04-06T10:54:03;15.48;;;7.40;;
72127;SDS011;60000;51.030;7.024;2023-04-06T10:56:30;16.67;;;7.03;;
72127;SDS011;60000;51.030;7.024;2023-04-06T10:58:59;17.60;;;7.43;;
72127;SDS011;60000;51.030;7.024;2023-04-06T11:01:25;14.43;;;6.63;;
72127;SDS011;60000;51.030;7.024;2023-04-06T11:03:53;14.98;;;7.25;;
72127;SDS011;60000;51.030;7.024;2023-04-06T11:06:20;14.80;;;6.72;;
72127;SDS011;60000;51.030;7.024;2023-04-06T11:08:50;15.57;;;7.18;;
72127;SDS011;60000;51.030;7.024;2023-04-06T11:11:17;13.97;;;7.00;;
72127;SDS011;60000;51.030;7.024;2023-04-06T11:13:49;15.97;;;6.87;;
72127;SDS011;60000;51.030;7.024;2023-04-06T11:16:25;14.90;;;6.75;;
72127;SDS011;60000;51.030;7.024;2023-04-06T11:18:53;18.08;;;6.68;;
72127;SDS011;60000;51.030;7.024;2023-04-06T11:21:31;18.33;;;7.68;;
72127;SDS011;60000;51.030;7.024;2023-04-06T11:24:08;20.83;;;7.90;;
72127;SDS011;60000;51.030;7.024;2023-04-06T11:26:42;15.90;;;7.00;;
72127;SDS011;60000;51.030;7.024;2023-04-06T11:29:18;15.52;;;6.97;;
72127;SDS011;60000;51.030;7.024;2023-04-06T11:31:45;15.05;;;7.13;;
72127;SDS011;60000;51.030;7.024;2023-04-06T11:34:22;17.50;;;7.68;;
72127;SDS011;60000;51.030;7.024;2023-04-06T11:36:49;14.27;;;6.75;;
72127;SDS011;60000;51.030;7.024;2023-04-06T11:39:20;16.60;;;7.30;;
72127;SDS011;60000;51.030;7.024;2023-04-06T11:41:48;13.60;;;6.78;;
72127;SDS011;60000;51.030;7.024;2023-04-06T11:47:10;16.05;;;7.38;;
72127;SDS011;60000;51.030;7.024;2023-04-06T11:49:39;18.30;;;6.83;;
72127;SDS011;60000;51.030;7.024;2023-04-06T11:52:24;14.80;;;6.75;;
72127;SDS011;60000;51.030;7.024;2023-04-06T11:54:52;14.20;;;6.50;;
72127;SDS011;60000;51.030;7.024;2023-04-06T11:57:20;18.40;;;7.03;;
72127;SDS011;60000;51.030;7.024;2023-04-06T11:59:46;16.10;;;7.80;;
72127;SDS011;60000;51.030;7.024;2023-04-06T12:02:11;17.10;;;6.23;;
72127;SDS011;60000;51.030;7.024;2023-04-06T12:04:37;18.40;;;7.00;;
72127;SDS011;60000;51.030;7.024;2023-04-06T12:07:03;14.85;;;7.65;;
72127;SDS011;60000;51.030;7.024;2023-04-06T12:09:29;15.07;;;6.82;;
72127;SDS011;60000;51.030;7.024;2023-04-06T12:11:55;17.37;;;7.13;;
72127;SDS011;60000;51.030;7.024;2023-04-06T12:14:21;16.10;;;7.43;;
72127;SDS011;60000;51.030;7.024;2023-04-06T12:16:46;14.57;;;6.83;;
72127;SDS011;60000;51.030;7.024;2023-04-06T12:19:12;16.00;;;7.43;;
72127;SDS011;60000;51.030;7.024;2023-04-06T12:21:37;13.95;;;6.40;;
72127;SDS011;60000;51.030;7.024;2023-04-06T12:24:03;14.35;;;6.35;;
72127;SDS011;60000;51.030;7.024;2023-04-06T12:26:29;14.00;;;6.55;;
72127;SDS011;60000;51.030;7.024;2023-04-06T12:28:55;16.30;;;6.27;;
72127;SDS011;60000;51.030;7.024;2023-04-06T12:31:21;14.10;;;6.28;;
72127;SDS011;60000;51.030;7.024;2023-04-06T12:33:48;16.77;;;6.55;;
72127;SDS011;60000;51.030;7.024;2023-04-06T12:36:15;13.30;;;6.22;;
72127;SDS011;60000;51.030;7.024;2023-04-06T12:38:43;12.05;;;5.93;;
72127;SDS011;60000;51.030;7.024;2023-04-06T12:41:10;13.77;;;6.30;;
72127;SDS011;60000;51.030;7.024;2023-04-06T12:43:36;14.00;;;5.72;;
72127;SDS011;60000;51.030;7.024;2023-04-06T12:46:01;12.93;;;6.10;;
72127;SDS011;60000;51.030;7.024;2023-04-06T12:48:27;12.50;;;5.97;;
72127;SDS011;60000;51.030;7.024;2023-04-06T12:50:57;11.70;;;5.73;;
72127;SDS011;60000;51.030;7.024;2023-04-06T12:53:23;12.85;;;5.70;;
72127;SDS011;60000;51.030;7.024;2023-04-06T12:55:49;12.20;;;6.27;;
72127;SDS011;60000;51.030;7.024;2023-04-06T12:58:14;14.60;;;6.75;;
72127;SDS011;60000;51.030;7.024;2023-04-06T13:00:40;12.93;;;5.50;;
72127;SDS011;60000;51.030;7.024;2023-04-06T13:03:06;14.73;;;6.00;;
72127;SDS011;60000;51.030;7.024;2023-04-06T13:05:31;14.07;;;5.70;;
72127;SDS011;60000;51.030;7.024;2023-04-06T13:07:57;11.40;;;5.33;;
72127;SDS011;60000;51.030;7.024;2023-04-06T13:10:22;11.98;;;5.40;;
72127;SDS011;60000;51.030;7.024;2023-04-06T13:12:48;14.43;;;5.80;;
72127;SDS011;60000;51.030;7.024;2023-04-06T13:15:13;16.67;;;7.57;;
72127;SDS011;60000;51.030;7.024;2023-04-06T13:17:39;15.27;;;7.07;;
72127;SDS011;60000;51.030;7.024;2023-04-06T13:20:05;13.30;;;6.57;;
72127;SDS011;60000;51.030;7.024;2023-04-06T13:22:31;16.08;;;6.38;;
72127;SDS011;60000;51.030;7.024;2023-04-06T13:24:56;14.57;;;6.17;;
72127;SDS011;60000;51.030;7.024;2023-04-06T13:27:22;15.90;;;6.63;;
72127;SDS011;60000;51.030;7.024;2023-04-06T13:29:47;13.27;;;5.80;;
72127;SDS011;60000;51.030;7.024;2023-04-06T13:32:12;13.25;;;5.82;;
72127;SDS011;60000;51.030;7.024;2023-04-06T13:34:38;11.68;;;5.38;;
72127;SDS011;60000;51.030;7.024;2023-04-06T13:37:03;17.10;;;5.87;;
72127;SDS011;60000;51.030;7.024;2023-04-06T13:39:29;10.63;;;4.88;;
72127;SDS011;60000;51.030;7.024;2023-04-06T13:41:54;9.87;;;4.00;;
72127;SDS011;60000;51.030;7.024;2023-04-06T13:44:22;10.88;;;4.80;;
72127;SDS011;60000;51.030;7.024;2023-04-06T13:46:47;9.90;;;4.30;;
72127;SDS011;60000;51.030;7.024;2023-04-06T13:49:13;13.07;;;4.63;;
72127;SDS011;60000;51.030;7.024;2023-04-06T13:51:38;11.60;;;5.15;;
72127;SDS011;60000;51.030;7.024;2023-04-06T13:54:04;9.90;;;4.77;;
72127;SDS011;60000;51.030;7.024;2023-04-06T13:56:29;10.43;;;4.60;;
72127;SDS011;60000;51.030;7.024;2023-04-06T13:58:55;12.00;;;4.67;;
72127;SDS011;60000;51.030;7.024;2023-04-06T14:01:21;11.88;;;5.05;;
72127;SDS011;60000;51.030;7.024;2023-04-06T14:03:48;11.23;;;5.10;;
72127;SDS011;60000;51.030;7.024;2023-04-06T14:06:13;11.30;;;4.55;;
72127;SDS011;60000;51.030;7.024;2023-04-06T14:08:39;11.23;;;4.97;;
72127;SDS011;60000;51.030;7.024;2023-04-06T14:11:04;10.20;;;4.13;;
72127;SDS011;60000;51.030;7.024;2023-04-06T14:13:33;11.68;;;4.72;;
72127;SDS011;60000;51.030;7.024;2023-04-06T14:15:58;12.63;;;5.30;;
72127;SDS011;60000;51.030;7.024;2023-04-06T14:18:24;9.17;;;4.30;;
72127;SDS011;60000;51.030;7.024;2023-04-06T14:20:55;9.65;;;4.75;;
72127;SDS011;60000;51.030;7.024;2023-04-06T14:23:21;10.50;;;4.30;;
72127;SDS011;60000;51.030;7.024;2023-04-06T14:25:47;9.25;;;4.25;;
72127;SDS011;60000;51.030;7.024;2023-04-06T14:28:12;10.07;;;4.40;;
72127;SDS011;60000;51.030;7.024;2023-04-06T14:30:37;11.00;;;4.87;;
72127;SDS011;60000;51.030;7.024;2023-04-06T14:33:03;12.30;;;4.57;;
72127;SDS011;60000;51.030;7.024;2023-04-06T14:35:28;11.33;;;4.50;;
72127;SDS011;60000;51.030;7.024;2023-04-06T14:37:55;9.32;;;4.03;;
72127;SDS011;60000;51.030;7.024;2023-04-06T14:40:24;11.68;;;5.00;;